Time;durP1;ratioP1;P1;durP2;ratioP2;P2;SDS_P1;SDS_P2;PMS_P1;PMS_P2;Temp;Humidity;BMP_temperature;BMP_pressure;BME280_temperature;BME280_humidity;BME280_pressure;Samples;Min_cycle;Max_cycle;Signal;HPM_P1;HPM_P2
2022/01/28 00:00:13;;;;;;;17.98;4.10;;;5.90;99.90;;;;;;4953371;28;20401;-81
2022/01/28 00:02:52;;;;;;;16.60;4.93;;;5.90;99.90;;;;;;5037176;28;20409;-80
2022/01/28 00:05:21;;;;;;;15.70;3.97;;;5.90;99.90;;;;;;4953723;29;20526;-80
2022/01/28 00:07:50;;;;;;;18.35;5.10;;;5.90;99.90;;;;;;4969924;28;20435;-80
2022/01/28 00:10:15;;;;;;;21.30;5.13;;;5.90;99.90;;;;;;4970046;28;20550;-80
2022/01/28 00:13:03;;;;;;;18.33;4.53;;;5.90;99.90;;;;;;4972103;28;20919;-79
2022/01/28 00:37:06;;;;;;;16.95;4.82;;;5.80;99.90;;;;;;4971125;28;20854;-81
2022/01/28 00:39:32;;;;;;;17.02;5.35;;;5.80;99.90;;;;;;5036920;28;20420;-80
2022/01/28 00:41:58;;;;;;;21.10;5.73;;;5.70;99.90;;;;;;4970737;28;20892;-81
2022/01/28 00:44:23;;;;;;;18.70;5.37;;;5.70;99.90;;;;;;4969962;28;20401;-81
2022/01/28 00:46:49;;;;;;;18.70;5.18;;;5.70;99.90;;;;;;4969960;28;20422;-80
2022/01/28 00:49:14;;;;;;;20.07;5.40;;;5.70;99.90;;;;;;4972461;28;20873;-79
2022/01/28 00:51:40;;;;;;;21.17;5.83;;;5.70;99.90;;;;;;4971506;28;20402;-79
2022/01/28 00:54:06;;;;;;;20.33;5.33;;;5.70;99.90;;;;;;4969816;28;20529;-80
2022/01/28 00:56:31;;;;;;;19.63;5.35;;;5.60;99.90;;;;;;4969038;28;20752;-81
2022/01/28 00:58:57;;;;;;;20.33;5.65;;;5.60;99.90;;;;;;4970087;28;20436;-80
2022/01/28 01:01:22;;;;;;;17.27;5.20;;;5.50;99.90;;;;;;4970507;28;20406;-80
2022/01/28 01:03:48;;;;;;;22.77;6.07;;;5.50;99.90;;;;;;5036819;28;20471;-79
2022/01/28 01:06:14;;;;;;;25.65;5.75;;;5.40;99.90;;;;;;4969438;28;20399;-81
2022/01/28 01:08:40;;;;;;;16.67;4.88;;;5.40;99.90;;;;;;4969208;28;20406;-80
2022/01/28 01:11:06;;;;;;;21.58;5.60;;;5.40;99.90;;;;;;4969914;28;20447;-82
2022/01/28 01:13:37;;;;;;;22.00;5.93;;;5.40;99.90;;;;;;4969713;28;20430;-79
2022/01/28 01:16:03;;;;;;;19.48;5.55;;;5.40;99.90;;;;;;5036703;28;20413;-79
2022/01/28 01:18:37;;;;;;;20.50;5.20;;;5.30;99.90;;;;;;4970052;28;20418;-80
2022/01/28 01:21:08;;;;;;;22.90;5.70;;;5.40;99.90;;;;;;5036115;28;20505;-79
2022/01/28 01:23:37;;;;;;;19.00;5.32;;;5.40;99.90;;;;;;4969837;28;20398;-80
2022/01/28 01:26:09;;;;;;;21.05;5.38;;;5.40;99.90;;;;;;4969818;28;20869;-80
2022/01/28 01:28:38;;;;;;;18.13;5.47;;;5.50;99.90;;;;;;4969594;28;20417;-81
2022/01/28 01:31:06;;;;;;;19.40;5.45;;;5.50;99.90;;;;;;4969531;28;20387;-80
2022/01/28 01:33:38;;;;;;;20.63;5.63;;;5.50;99.90;;;;;;4968750;28;20521;-80
2022/01/28 01:36:04;;;;;;;17.02;4.78;;;5.50;99.90;;;;;;5035627;28;20399;-80
2022/01/28 01:38:34;;;;;;;17.77;5.07;;;5.60;99.90;;;;;;4969368;28;20525;-80
2022/01/28 01:41:03;;;;;;;21.40;5.40;;;5.50;99.90;;;;;;4970036;28;21131;-80
2022/01/28 01:43:52;;;;;;;23.25;5.78;;;5.50;99.90;;;;;;4970783;28;20395;-79
2022/01/28 01:54:18;;;;;;;18.85;5.50;;;5.40;99.90;;;;;;4970311;28;20469;-82
2022/01/28 01:56:45;;;;;;;19.67;5.03;;;5.50;99.90;;;;;;4970222;28;20475;-80
2022/01/28 01:59:11;;;;;;;23.07;5.87;;;5.50;99.90;;;;;;4969927;28;20407;-80
2022/01/28 02:01:38;;;;;;;22.67;5.73;;;5.50;99.90;;;;;;4969477;28;20399;-82
2022/01/28 02:04:04;;;;;;;20.48;5.57;;;5.50;99.90;;;;;;5035471;28;20852;-80
2022/01/28 02:06:31;;;;;;;19.77;5.63;;;5.60;99.90;;;;;;4969592;28;20406;-82
2022/01/28 02:08:56;;;;;;;17.50;5.03;;;5.60;99.90;;;;;;5036588;28;20405;-80
2022/01/28 02:11:22;;;;;;;19.73;5.77;;;5.60;99.90;;;;;;4970208;28;20501;-82
2022/01/28 02:13:50;;;;;;;22.60;5.47;;;5.60;99.90;;;;;;4970644;28;20410;-80
2022/01/28 02:16:17;;;;;;;17.80;5.65;;;5.50;99.90;;;;;;4972002;28;20403;-81
2022/01/28 02:18:43;;;;;;;20.40;5.93;;;5.50;99.90;;;;;;4971239;28;20402;-81
2022/01/28 02:21:11;;;;;;;23.40;6.13;;;5.50;99.90;;;;;;4970949;28;20726;-82
2022/01/28 02:23:38;;;;;;;19.83;5.53;;;5.50;99.90;;;;;;4973299;28;20394;-80
2022/01/28 02:26:05;;;;;;;24.48;5.38;;;5.40;99.90;;;;;;4969328;28;20498;-81
2022/01/28 02:28:35;;;;;;;22.77;5.78;;;5.40;99.90;;;;;;5034650;28;20954;-81
2022/01/28 02:31:03;;;;;;;29.35;6.18;;;5.40;99.90;;;;;;5035162;28;20407;-81
2022/01/28 02:33:29;;;;;;;23.20;5.68;;;5.50;99.90;;;;;;4966471;28;20442;-82
2022/01/28 02:35:56;;;;;;;25.35;6.45;;;5.50;99.90;;;;;;4967594;28;20934;-81
2022/01/28 02:38:23;;;;;;;21.85;6.28;;;5.50;99.90;;;;;;5034500;28;20884;-80
2022/01/28 02:40:55;;;;;;;19.75;5.28;;;5.50;99.90;;;;;;4970343;28;20440;-80
2022/01/28 02:45:49;;;;;;;19.53;5.93;;;5.60;99.90;;;;;;4968231;28;20481;-81
2022/01/28 02:48:22;;;;;;;22.93;5.57;;;5.60;99.90;;;;;;4967909;28;20469;-81
2022/01/28 02:53:23;;;;;;;18.65;5.72;;;5.70;99.90;;;;;;4968143;28;21179;-81
2022/01/28 02:55:56;;;;;;;23.63;6.30;;;5.60;99.90;;;;;;4968360;28;20394;-82
2022/01/28 02:58:24;;;;;;;20.52;5.55;;;5.70;99.90;;;;;;4968329;28;20456;-81
2022/01/28 03:00:52;;;;;;;21.37;5.80;;;5.70;99.90;;;;;;4968497;28;20410;-80
2022/01/28 03:03:19;;;;;;;21.30;5.30;;;5.70;99.90;;;;;;5035803;28;20467;-80
2022/01/28 03:05:45;;;;;;;23.85;5.63;;;5.70;99.90;;;;;;5034190;28;20398;-81
2022/01/28 03:08:12;;;;;;;21.65;6.07;;;5.70;99.90;;;;;;5034961;28;20905;-81
2022/01/28 03:15:34;;;;;;;21.17;5.78;;;5.60;99.90;;;;;;4967712;28;20398;-82
2022/01/28 03:18:13;;;;;;;19.42;5.55;;;5.60;99.90;;;;;;4968056;28;20413;-80
2022/01/28 03:20:43;;;;;;;21.77;5.50;;;5.60;99.90;;;;;;5034609;28;20880;-80
2022/01/28 03:23:10;;;;;;;19.90;5.90;;;5.60;99.90;;;;;;5035093;28;20429;-80
2022/01/28 03:25:37;;;;;;;20.98;5.63;;;5.60;99.90;;;;;;4968108;28;20391;-84
2022/01/28 03:28:04;;;;;;;18.60;5.60;;;5.60;99.90;;;;;;5033089;28;20871;-80
2022/01/28 03:30:29;;;;;;;24.30;5.97;;;5.60;99.90;;;;;;4967422;28;20479;-80
2022/01/28 03:32:55;;;;;;;16.47;4.80;;;5.60;99.90;;;;;;4967942;28;20853;-81
2022/01/28 03:35:21;;;;;;;22.10;5.30;;;5.70;99.90;;;;;;4967333;28;20410;-81
2022/01/28 03:37:46;;;;;;;20.73;6.33;;;5.70;99.90;;;;;;5034756;28;20437;-81
2022/01/28 03:40:17;;;;;;;23.55;5.72;;;5.70;99.90;;;;;;4968456;28;20396;-80
2022/01/28 03:42:43;;;;;;;22.33;5.53;;;5.70;99.90;;;;;;4968293;28;20399;-81
2022/01/28 03:45:09;;;;;;;22.25;5.70;;;5.70;99.90;;;;;;5036304;28;20389;-81
2022/01/28 03:47:34;;;;;;;19.95;5.85;;;5.80;99.90;;;;;;4970875;28;20429;-81
2022/01/28 03:50:00;;;;;;;20.02;5.40;;;5.70;99.90;;;;;;4972190;28;20456;-80
2022/01/28 03:52:25;;;;;;;20.33;6.00;;;5.80;99.90;;;;;;4970926;28;20493;-81
2022/01/28 03:54:51;;;;;;;22.73;5.70;;;5.70;99.90;;;;;;4971998;28;20500;-80
2022/01/28 03:57:17;;;;;;;20.17;5.97;;;5.80;99.90;;;;;;4971090;28;20383;-82
2022/01/28 03:59:42;;;;;;;20.43;5.50;;;5.70;99.90;;;;;;4970794;28;20399;-81
2022/01/28 04:02:08;;;;;;;18.67;5.20;;;5.80;99.90;;;;;;4970010;28;20422;-82
2022/01/28 04:25:58;;;;;;;19.77;5.32;;;5.90;99.90;;;;;;4958332;28;20402;-82
2022/01/28 04:28:24;;;;;;;17.05;5.28;;;5.80;99.90;;;;;;4971587;28;20407;-81
2022/01/28 04:30:49;;;;;;;23.37;5.83;;;5.80;99.90;;;;;;4970872;28;20833;-82
2022/01/28 04:33:15;;;;;;;20.63;5.70;;;5.90;99.90;;;;;;4970168;28;20407;-81
2022/01/28 04:35:41;;;;;;;17.98;5.55;;;5.90;99.90;;;;;;5037516;28;20480;-81
2022/01/28 04:38:27;;;;;;;22.88;5.85;;;5.90;99.90;;;;;;5037879;28;20407;-81
2022/01/28 04:41:07;;;;;;;19.37;5.80;;;5.90;99.90;;;;;;5037281;28;20407;-80
2022/01/28 04:43:43;;;;;;;21.02;5.85;;;5.90;99.90;;;;;;5037624;28;20918;-80
2022/01/28 04:46:16;;;;;;;16.27;5.47;;;5.90;99.90;;;;;;5037317;28;20953;-81
2022/01/28 04:48:53;;;;;;;19.15;5.05;;;5.80;99.90;;;;;;5038217;28;20406;-81
2022/01/28 04:51:34;;;;;;;20.83;5.50;;;5.80;99.90;;;;;;5037913;28;20773;-83
2022/01/28 04:54:11;;;;;;;19.25;4.75;;;5.80;99.90;;;;;;5038024;28;20967;-81
2022/01/28 04:59:29;;;;;;;18.92;5.40;;;5.80;99.90;;;;;;4971909;28;20434;-80
2022/01/28 05:05:01;;;;;;;19.97;5.83;;;5.70;99.90;;;;;;4966435;28;20417;-81
2022/01/28 05:16:10;;;;;;;19.50;5.57;;;5.80;99.90;;;;;;4971175;28;20398;-81
2022/01/28 05:24:34;;;;;;;27.13;6.18;;;5.70;99.90;;;;;;4971103;28;20436;-81
2022/01/28 05:26:58;;;;;;;19.70;5.82;;;5.60;99.90;;;;;;4970782;28;20757;-80
2022/01/28 05:29:24;;;;;;;24.88;6.07;;;5.70;99.90;;;;;;5037416;28;20746;-81
2022/01/28 05:31:50;;;;;;;22.88;5.75;;;5.70;99.90;;;;;;5035780;28;20402;-82
2022/01/28 05:34:17;;;;;;;22.30;5.90;;;5.70;99.90;;;;;;4970288;28;20764;-81
2022/01/28 05:36:43;;;;;;;21.70;5.65;;;5.80;99.90;;;;;;4970728;28;20397;-81
2022/01/28 05:39:09;;;;;;;21.53;6.20;;;5.70;99.90;;;;;;4971872;28;20477;-81
2022/01/28 05:41:35;;;;;;;20.37;6.13;;;5.60;99.90;;;;;;4970645;28;20402;-81
2022/01/28 05:44:02;;;;;;;20.58;5.55;;;5.70;99.90;;;;;;4970148;28;20444;-82
2022/01/28 05:46:29;;;;;;;22.05;5.88;;;5.70;99.90;;;;;;4969680;28;20422;-82
2022/01/28 05:48:56;;;;;;;20.17;5.80;;;5.70;99.90;;;;;;5036980;28;20424;-81
2022/01/28 05:51:21;;;;;;;20.35;5.97;;;5.70;99.90;;;;;;4968970;28;20772;-80
2022/01/28 05:53:47;;;;;;;21.07;5.80;;;5.70;99.90;;;;;;5036334;28;20490;-82
2022/01/28 05:56:13;;;;;;;21.93;6.20;;;5.70;99.90;;;;;;5036889;28;20394;-79
2022/01/28 05:58:38;;;;;;;20.00;6.22;;;5.70;99.90;;;;;;5036001;28;20418;-81
2022/01/28 06:01:04;;;;;;;22.10;6.18;;;5.70;99.90;;;;;;4969753;28;20395;-80
2022/01/28 06:03:30;;;;;;;20.17;5.43;;;5.70;99.90;;;;;;4970769;28;20861;-82
2022/01/28 06:05:55;;;;;;;19.03;6.00;;;5.70;99.90;;;;;;5035567;28;20434;-80
2022/01/28 06:08:21;;;;;;;23.80;6.23;;;5.70;99.90;;;;;;5033879;28;20625;-81
2022/01/28 06:10:47;;;;;;;22.88;5.75;;;5.70;99.90;;;;;;5034919;28;20403;-82
2022/01/28 06:13:12;;;;;;;20.00;5.38;;;5.70;99.90;;;;;;4961383;28;20746;-80
2022/01/28 06:15:42;;;;;;;19.53;5.40;;;5.70;99.90;;;;;;5035610;28;20406;-81
2022/01/28 06:18:11;;;;;;;18.95;5.57;;;5.70;99.90;;;;;;4970212;28;20389;-82
2022/01/28 06:20:37;;;;;;;20.35;5.82;;;5.70;99.90;;;;;;5017652;28;20436;-81
2022/01/28 06:23:03;;;;;;;25.95;5.80;;;5.70;99.90;;;;;;5015607;28;20389;-82
2022/01/28 06:25:30;;;;;;;27.73;6.53;;;5.70;99.90;;;;;;4950563;28;20372;-81
2022/01/28 06:27:56;;;;;;;24.02;6.63;;;5.70;99.90;;;;;;5034104;28;20428;-81
2022/01/28 06:30:22;;;;;;;24.63;5.97;;;5.60;99.90;;;;;;4969116;28;20375;-82
2022/01/28 06:32:49;;;;;;;22.27;6.75;;;5.60;99.90;;;;;;5035882;28;20466;-81
2022/01/28 06:35:15;;;;;;;22.35;6.47;;;5.60;99.90;;;;;;5035370;28;20390;-82
2022/01/28 06:37:42;;;;;;;23.87;6.60;;;5.60;99.90;;;;;;4967387;28;20490;-81
2022/01/28 06:40:11;;;;;;;20.77;5.70;;;5.60;99.90;;;;;;4968414;28;20386;-81
2022/01/28 06:42:37;;;;;;;20.15;6.05;;;5.60;99.90;;;;;;4967460;28;20399;-82
2022/01/28 06:45:04;;;;;;;23.17;6.47;;;5.60;99.90;;;;;;5034442;28;20434;-82
2022/01/28 06:47:31;;;;;;;23.87;5.97;;;5.60;99.90;;;;;;4967522;28;20379;-81
2022/01/28 06:49:57;;;;;;;26.13;6.65;;;5.60;99.90;;;;;;4967928;28;20394;-82
2022/01/28 06:52:24;;;;;;;25.55;6.57;;;5.50;99.90;;;;;;5035015;28;20407;-82
2022/01/28 06:54:51;;;;;;;24.75;6.45;;;5.50;99.90;;;;;;5036113;28;20456;-82
2022/01/28 06:57:16;;;;;;;25.83;6.15;;;5.50;99.90;;;;;;4968244;28;20824;-81
2022/01/28 06:59:43;;;;;;;24.23;6.20;;;5.50;99.90;;;;;;4969526;28;20387;-82
2022/01/28 07:02:09;;;;;;;22.58;6.40;;;5.40;99.90;;;;;;5034641;28;20452;-81
2022/01/28 07:04:35;;;;;;;25.38;6.43;;;5.40;99.90;;;;;;5036455;28;20395;-82
2022/01/28 07:07:00;;;;;;;23.80;6.93;;;5.30;99.90;;;;;;4971796;28;20436;-82
2022/01/28 07:09:27;;;;;;;24.43;6.60;;;5.30;99.90;;;;;;4970025;28;20927;-82
2022/01/28 07:11:52;;;;;;;25.13;6.55;;;5.20;99.90;;;;;;4968923;28;20391;-81
2022/01/28 07:14:18;;;;;;;22.07;6.43;;;5.20;99.90;;;;;;4968598;28;20816;-82
2022/01/28 07:16:43;;;;;;;24.43;6.83;;;5.00;99.90;;;;;;5035852;28;20730;-80
2022/01/28 07:19:09;;;;;;;22.35;7.30;;;5.00;99.90;;;;;;4969692;28;20395;-84
2022/01/28 07:21:35;;;;;;;25.27;6.78;;;5.00;99.90;;;;;;4972476;28;20378;-83
2022/01/28 07:24:01;;;;;;;27.00;7.13;;;4.90;99.90;;;;;;4971296;28;20948;-81
2022/01/28 07:26:27;;;;;;;24.20;6.40;;;4.80;99.90;;;;;;4973291;28;20572;-81
2022/01/28 07:28:53;;;;;;;25.40;7.07;;;4.90;99.90;;;;;;4973053;28;20383;-80
2022/01/28 07:31:19;;;;;;;24.77;6.72;;;4.80;99.90;;;;;;5030414;28;20487;-84
2022/01/28 07:33:45;;;;;;;27.80;6.77;;;4.80;99.90;;;;;;4951620;29;20470;-81
2022/01/28 07:36:11;;;;;;;25.90;7.57;;;4.80;99.90;;;;;;5018223;28;20539;-82
2022/01/28 07:38:37;;;;;;;25.83;6.97;;;4.80;99.90;;;;;;4952062;28;20475;-82
2022/01/28 07:41:04;;;;;;;27.67;7.38;;;4.80;99.90;;;;;;4952315;28;20415;-81
2022/01/28 07:43:30;;;;;;;27.67;8.02;;;4.70;99.90;;;;;;4969434;28;20419;-83
2022/01/28 07:45:55;;;;;;;24.97;7.30;;;4.80;99.90;;;;;;5038796;28;20437;-81
2022/01/28 07:48:21;;;;;;;27.50;7.25;;;4.70;99.90;;;;;;4971255;28;20394;-81
2022/01/28 07:50:46;;;;;;;29.42;7.55;;;4.70;99.90;;;;;;4971540;28;20395;-82
2022/01/28 07:53:16;;;;;;;26.30;7.00;;;4.70;99.90;;;;;;4972056;28;20465;-82
2022/01/28 07:55:42;;;;;;;29.85;7.63;;;4.70;99.90;;;;;;5040352;28;20410;-80
2022/01/28 07:58:08;;;;;;;28.57;7.50;;;4.70;99.90;;;;;;4973383;28;20425;-80
2022/01/28 08:00:33;;;;;;;25.20;7.10;;;4.70;99.90;;;;;;4973073;28;20776;-81
2022/01/28 08:02:59;;;;;;;27.98;7.55;;;4.80;99.90;;;;;;4972385;28;20473;-82
2022/01/28 08:05:25;;;;;;;30.73;7.93;;;4.70;99.90;;;;;;4971641;28;20398;-81
2022/01/28 08:07:51;;;;;;;27.35;7.50;;;4.80;99.90;;;;;;4971880;28;20410;-83
2022/01/28 08:10:17;;;;;;;30.00;7.57;;;4.80;99.90;;;;;;5040538;28;20445;-81
2022/01/28 08:12:47;;;;;;;29.58;9.00;;;4.80;99.90;;;;;;4973483;28;20411;-82
2022/01/28 08:15:15;;;;;;;28.52;8.27;;;4.80;99.90;;;;;;5039756;28;20403;-79
2022/01/28 08:17:40;;;;;;;31.52;8.25;;;4.70;99.90;;;;;;5060604;28;20390;-83
2022/01/28 08:20:07;;;;;;;27.83;7.43;;;4.70;99.90;;;;;;5058655;28;20381;-81
2022/01/28 08:22:42;;;;;;;27.65;8.55;;;4.80;99.90;;;;;;4973005;28;20429;-82
2022/01/28 08:25:08;;;;;;;32.47;7.90;;;4.90;99.90;;;;;;4975334;28;20402;-81
2022/01/28 08:27:34;;;;;;;25.23;7.47;;;4.80;99.90;;;;;;5038547;28;20409;-80
2022/01/28 08:29:59;;;;;;;24.63;7.80;;;5.00;99.90;;;;;;5038619;28;20403;-81
2022/01/28 08:32:27;;;;;;;26.47;7.30;;;5.10;99.90;;;;;;5036885;28;20803;-82
2022/01/28 08:34:53;;;;;;;27.63;7.65;;;5.00;99.90;;;;;;4972273;28;20406;-82
2022/01/28 08:37:19;;;;;;;27.70;7.73;;;5.00;99.90;;;;;;5039362;28;20478;-81
2022/01/28 08:39:45;;;;;;;29.73;7.67;;;4.90;99.90;;;;;;4972080;28;20456;-83
2022/01/28 08:42:11;;;;;;;24.57;7.53;;;5.00;99.90;;;;;;5039151;28;20800;-82
2022/01/28 08:44:36;;;;;;;29.08;7.63;;;5.10;99.90;;;;;;5039526;28;20482;-80
2022/01/28 08:47:02;;;;;;;26.38;7.60;;;5.10;99.90;;;;;;4973914;28;20458;-80
2022/01/28 08:49:28;;;;;;;33.92;8.07;;;5.10;99.90;;;;;;4972426;28;20397;-82
2022/01/28 08:51:53;;;;;;;29.70;7.33;;;5.20;99.90;;;;;;4970563;28;20409;-81
2022/01/28 08:54:19;;;;;;;22.60;6.83;;;5.20;99.90;;;;;;5037162;28;20410;-83
2022/01/28 08:56:45;;;;;;;25.42;7.20;;;5.30;99.90;;;;;;4972355;28;20391;-81
2022/01/28 08:59:11;;;;;;;29.23;7.60;;;5.40;99.90;;;;;;4972939;28;20908;-80
2022/01/28 09:01:36;;;;;;;29.70;7.17;;;5.40;99.90;;;;;;5038264;28;20394;-82
2022/01/28 09:04:02;;;;;;;23.87;7.00;;;5.40;99.90;;;;;;4971244;28;20411;-82
2022/01/28 09:06:28;;;;;;;27.50;7.60;;;5.30;99.90;;;;;;4970163;28;20395;-83
2022/01/28 09:08:56;;;;;;;23.65;6.47;;;5.40;99.90;;;;;;4971055;28;20381;-81
2022/01/28 09:13:48;;;;;;;22.83;6.75;;;5.40;99.90;;;;;;4970495;28;20461;-81
2022/01/28 09:16:13;;;;;;;27.20;7.30;;;5.50;99.90;;;;;;4970657;28;20482;-81
2022/01/28 09:18:39;;;;;;;24.85;6.60;;;5.60;99.90;;;;;;4970991;28;20987;-82
2022/01/28 09:21:05;;;;;;;23.73;7.45;;;5.60;99.90;;;;;;4970455;28;20394;-81
2022/01/28 09:23:31;;;;;;;24.92;7.40;;;5.50;99.90;;;;;;5036507;28;20623;-83
2022/01/28 09:25:57;;;;;;;25.23;6.55;;;5.60;99.90;;;;;;5037223;28;20391;-84
2022/01/28 09:28:22;;;;;;;22.08;6.85;;;5.70;99.90;;;;;;4970674;28;20395;-82
2022/01/28 09:30:48;;;;;;;23.37;6.90;;;5.70;99.90;;;;;;4969934;28;20405;-82
2022/01/28 09:33:14;;;;;;;22.90;5.78;;;5.80;99.90;;;;;;5037286;28;20438;-83
2022/01/28 09:35:43;;;;;;;25.33;6.28;;;5.70;99.90;;;;;;5037473;28;20398;-80
2022/01/28 09:38:09;;;;;;;23.47;6.40;;;5.80;99.90;;;;;;4964346;28;20785;-80
2022/01/28 09:40:35;;;;;;;23.67;6.70;;;5.70;99.90;;;;;;4970718;28;20401;-84
2022/01/28 09:43:04;;;;;;;23.70;6.55;;;5.70;99.90;;;;;;4970209;28;20390;-83
2022/01/28 09:45:30;;;;;;;22.83;6.25;;;5.90;99.90;;;;;;4969655;28;20378;-84
2022/01/28 09:47:56;;;;;;;23.23;6.20;;;5.90;99.90;;;;;;4968709;28;20398;-84
2022/01/28 09:50:28;;;;;;;22.40;6.60;;;5.80;99.90;;;;;;5002130;28;20414;-84
2022/01/28 09:52:54;;;;;;;23.65;7.30;;;5.90;99.90;;;;;;5037411;28;20476;-82
2022/01/28 09:55:22;;;;;;;27.40;6.20;;;5.70;99.90;;;;;;5034991;28;20514;-84
2022/01/28 09:57:51;;;;;;;26.60;6.90;;;5.70;99.90;;;;;;5036307;28;20476;-84
2022/01/28 10:00:20;;;;;;;20.30;5.95;;;5.80;99.90;;;;;;5040750;28;20398;-82
2022/01/28 10:02:54;;;;;;;24.60;6.63;;;5.80;99.90;;;;;;4970500;28;20410;-80
2022/01/28 10:05:41;;;;;;;27.00;7.40;;;6.00;99.90;;;;;;5040399;28;20399;-82
2022/01/28 10:08:13;;;;;;;26.52;6.70;;;6.10;99.90;;;;;;4972080;28;20410;-83
2022/01/28 10:10:47;;;;;;;21.08;6.30;;;6.20;99.90;;;;;;4970556;28;20383;-83
2022/01/28 10:13:23;;;;;;;25.92;6.60;;;6.20;99.90;;;;;;4969489;28;20512;-81
2022/01/28 10:16:02;;;;;;;23.23;6.35;;;6.20;99.90;;;;;;5037513;28;20387;-81
2022/01/28 10:18:37;;;;;;;22.98;7.18;;;6.10;99.90;;;;;;5038222;28;20885;-82
2022/01/28 10:21:34;;;;;;;22.00;6.45;;;6.20;99.90;;;;;;5037084;28;20395;-83
2022/01/28 10:24:18;;;;;;;21.48;6.20;;;6.40;99.90;;;;;;4970683;28;20435;-81
2022/01/28 10:26:50;;;;;;;22.80;6.35;;;6.50;99.90;;;;;;4970629;28;20382;-81
2022/01/28 10:29:24;;;;;;;21.65;6.28;;;6.60;99.90;;;;;;4971148;28;20418;-82
2022/01/28 10:31:53;;;;;;;24.92;6.28;;;6.70;99.90;;;;;;5037753;28;20422;-81
2022/01/28 10:34:33;;;;;;;20.17;6.07;;;6.70;99.90;;;;;;5037111;28;20918;-83
2022/01/28 10:37:20;;;;;;;23.80;6.00;;;6.90;99.90;;;;;;4970008;28;20394;-83
2022/01/28 10:40:09;;;;;;;21.73;6.00;;;6.80;99.90;;;;;;4970042;28;20455;-81
2022/01/28 10:42:40;;;;;;;18.55;6.28;;;6.80;99.90;;;;;;5030805;28;20456;-84
2022/01/28 10:45:11;;;;;;;23.80;6.72;;;6.70;99.90;;;;;;4959535;28;20852;-83
2022/01/28 10:47:42;;;;;;;20.48;6.43;;;6.60;99.90;;;;;;4960314;28;20389;-81
2022/01/28 10:50:20;;;;;;;25.90;7.40;;;;;;;;;;4957739;28;20388;-84
2022/01/28 10:52:48;;;;;;;22.27;5.97;;;6.50;99.90;;;;;;4956654;28;20408;-83
2022/01/28 10:55:18;;;;;;;29.27;6.40;;;6.40;99.90;;;;;;4961476;28;20442;-81
2022/01/28 10:58:02;;;;;;;23.70;6.10;;;6.50;99.90;;;;;;4970934;28;20398;-83
2022/01/28 11:00:32;;;;;;;20.23;5.60;;;6.50;99.90;;;;;;4961353;28;20394;-83
2022/01/28 11:03:10;;;;;;;21.40;5.95;;;6.50;99.90;;;;;;4975999;28;20750;-82
2022/01/28 11:05:39;;;;;;;18.45;5.78;;;6.50;99.90;;;;;;5026441;28;20402;-83
2022/01/28 11:08:07;;;;;;;21.63;5.97;;;6.60;99.90;;;;;;4961035;28;20878;-83
2022/01/28 11:10:33;;;;;;;20.60;5.78;;;6.70;99.90;;;;;;5028084;28;21083;-81
2022/01/28 11:13:00;;;;;;;17.63;5.40;;;6.60;99.90;;;;;;4982557;28;20418;-83
2022/01/28 11:15:27;;;;;;;16.75;5.55;;;6.60;99.90;;;;;;4961344;28;20401;-81
2022/01/28 11:17:53;;;;;;;21.75;6.00;;;6.70;99.90;;;;;;4960537;28;20418;-80
2022/01/28 11:20:22;;;;;;;15.73;4.88;;;6.50;99.90;;;;;;4959367;28;20448;-82
2022/01/28 11:23:25;;;;;;;17.77;5.32;;;6.70;99.90;;;;;;5030197;28;20383;-81
2022/01/28 11:26:15;;;;;;;20.88;5.95;;;7.00;99.90;;;;;;4963144;28;20980;-80
2022/01/28 11:28:43;;;;;;;18.15;5.75;;;7.20;99.90;;;;;;4961879;28;20384;-82
2022/01/28 11:31:10;;;;;;;19.60;5.25;;;;;;;;;;5029079;28;20387;-81
2022/01/28 11:34:13;;;;;;;20.17;5.40;;;7.20;99.90;;;;;;5033375;28;20420;-81
2022/01/28 11:36:38;;;;;;;19.00;5.00;;;7.20;99.90;;;;;;4959601;28;20402;-82
2022/01/28 11:39:18;;;;;;;16.90;5.20;;;7.00;99.90;;;;;;4960487;28;20402;-83
2022/01/28 11:42:04;;;;;;;20.13;5.80;;;6.90;99.90;;;;;;4962185;28;20924;-83
2022/01/28 11:44:48;;;;;;;19.52;5.68;;;6.70;99.90;;;;;;5028264;28;20384;-80
2022/01/28 11:47:51;;;;;;;17.17;5.57;;;6.80;99.90;;;;;;5026952;28;20398;-83
2022/01/28 11:50:18;;;;;;;17.75;5.50;;;6.90;99.90;;;;;;4959062;28;20403;-83
2022/01/28 11:52:49;;;;;;;16.17;5.40;;;;;;;;;;5018700;28;20942;-83
2022/01/28 11:55:14;;;;;;;16.50;5.57;;;7.00;99.90;;;;;;4952283;28;20996;-81
2022/01/28 11:58:07;;;;;;;17.10;5.30;;;7.00;99.90;;;;;;4952523;28;20619;-83
2022/01/28 12:00:43;;;;;;;17.17;5.15;;;6.80;99.90;;;;;;4952588;28;20384;-82
2022/01/28 12:03:25;;;;;;;15.83;5.20;;;6.70;99.90;;;;;;4961650;28;20404;-80
2022/01/28 12:05:56;;;;;;;17.90;4.95;;;6.60;99.90;;;;;;4960702;28;20389;-82
2022/01/28 12:08:27;;;;;;;15.40;5.07;;;6.70;99.90;;;;;;5027920;28;20437;-82
2022/01/28 12:10:54;;;;;;;17.48;5.15;;;6.90;99.90;;;;;;4961173;28;20401;-83
2022/01/28 12:13:46;;;;;;;14.95;4.50;;;7.00;99.90;;;;;;5015131;28;20420;-82
2022/01/28 12:16:24;;;;;;;16.95;4.75;;;7.10;99.90;;;;;;4970383;28;20386;-81
2022/01/28 12:18:55;;;;;;;17.33;4.93;;;7.10;99.90;;;;;;4970648;28;20379;-82
2022/01/28 12:21:24;;;;;;;15.55;4.50;;;7.10;99.90;;;;;;4969368;28;20395;-83
2022/01/28 12:23:52;;;;;;;17.83;4.95;;;7.00;99.90;;;;;;4967452;28;20924;-84
2022/01/28 12:26:19;;;;;;;15.48;5.35;;;7.10;99.90;;;;;;4966288;28;20392;-82
2022/01/28 12:28:50;;;;;;;14.13;4.43;;;7.20;99.90;;;;;;4960912;28;20473;-82
2022/01/28 12:31:26;;;;;;;17.58;5.28;;;7.20;99.90;;;;;;4974547;28;20435;-85
2022/01/28 12:33:54;;;;;;;18.10;4.70;;;7.10;99.90;;;;;;5026959;28;20915;-83
2022/01/28 12:36:25;;;;;;;18.67;4.97;;;7.20;99.90;;;;;;4958695;28;20384;-84
2022/01/28 12:39:05;;;;;;;14.20;4.65;;;7.30;99.90;;;;;;4954650;28;20454;-82
2022/01/28 12:41:40;;;;;;;19.55;5.40;;;7.40;99.90;;;;;;4965067;28;20394;-84
2022/01/28 12:44:07;;;;;;;17.15;5.05;;;7.50;99.90;;;;;;5036678;28;20422;-83
2022/01/28 12:46:34;;;;;;;15.27;4.38;;;7.60;99.90;;;;;;5029249;28;20407;-84
2022/01/28 12:49:02;;;;;;;15.98;4.65;;;7.60;99.90;;;;;;4958370;28;20734;-81
2022/01/28 12:51:28;;;;;;;14.25;4.70;;;7.60;99.90;;;;;;4959590;28;20407;-84
2022/01/28 12:53:54;;;;;;;18.07;4.90;;;7.50;99.90;;;;;;4952913;28;20507;-82
2022/01/28 12:56:30;;;;;;;15.30;5.18;;;7.20;99.90;;;;;;4956321;28;20462;-84
2022/01/28 12:58:56;;;;;;;14.98;4.28;;;7.20;99.90;;;;;;4968036;28;20386;-82
2022/01/28 13:01:21;;;;;;;13.80;4.38;;;7.30;99.90;;;;;;5018708;28;20849;-83
2022/01/28 13:03:56;;;;;;;19.03;5.27;;;7.30;99.90;;;;;;5031282;28;20398;-84
2022/01/28 13:08:56;;;;;;;16.15;4.47;;;7.20;99.90;;;;;;4970923;28;20404;-85
2022/01/28 13:11:25;;;;;;;17.80;4.78;;;7.20;99.90;;;;;;4969594;28;20452;-83
2022/01/28 13:13:53;;;;;;;17.27;4.68;;;7.40;99.90;;;;;;4969853;28;20411;-82
2022/01/28 13:16:39;;;;;;;14.57;4.15;;;7.10;99.90;;;;;;4969561;28;20466;-83
2022/01/28 13:19:06;;;;;;;15.93;4.65;;;7.20;99.90;;;;;;4969791;28;20387;-85
2022/01/28 13:21:33;;;;;;;14.52;4.45;;;7.50;99.90;;;;;;4969977;28;20398;-85
2022/01/28 13:24:14;;;;;;;15.82;4.72;;;7.50;99.90;;;;;;4969335;28;20960;-84
2022/01/28 13:27:07;;;;;;;12.50;3.55;;;7.20;99.90;;;;;;4969340;28;20448;-83
2022/01/28 13:29:44;;;;;;;16.38;4.40;;;7.20;99.90;;;;;;5034177;28;20403;-84
2022/01/28 13:32:12;;;;;;;9.35;3.65;;;7.30;99.90;;;;;;5035308;28;20427;-83
2022/01/28 13:34:55;;;;;;;16.65;3.88;;;7.40;99.90;;;;;;4968886;28;20415;-85
2022/01/28 13:37:47;;;;;;;13.10;3.85;;;7.30;99.90;;;;;;5036248;28;20403;-84
2022/01/28 13:40:28;;;;;;;13.43;3.78;;;7.40;99.90;;;;;;5033045;28;20403;-83
2022/01/28 13:42:59;;;;;;;12.83;3.57;;;7.40;99.90;;;;;;5034946;28;20403;-83
2022/01/28 13:45:58;;;;;;;13.40;3.90;;;7.30;99.90;;;;;;5063348;28;20392;-83
2022/01/28 13:48:34;;;;;;;16.77;4.30;;;7.50;99.90;;;;;;4970374;28;20430;-83
2022/01/28 13:51:14;;;;;;;14.07;3.92;;;7.40;99.90;;;;;;5024749;28;21550;-83
2022/01/28 13:56:35;;;;;;;14.20;3.92;;;7.30;99.90;;;;;;4958393;28;20400;-83
2022/01/28 13:59:08;;;;;;;13.20;3.72;;;7.20;99.90;;;;;;5024974;28;20433;-82
2022/01/28 14:01:35;;;;;;;10.95;3.45;;;7.20;99.90;;;;;;5027951;28;20876;-80
2022/01/28 14:04:02;;;;;;;12.38;4.00;;;7.10;99.90;;;;;;4958577;28;20926;-79
2022/01/28 14:06:33;;;;;;;14.75;3.78;;;7.20;99.90;;;;;;5030550;28;20421;-80
2022/01/28 14:09:06;;;;;;;14.23;3.88;;;7.10;99.90;;;;;;4962127;28;20416;-84
2022/01/28 14:11:37;;;;;;;12.32;3.47;;;7.10;99.90;;;;;;4958970;28;20402;-81
2022/01/28 14:14:17;;;;;;;11.03;3.50;;;7.00;99.90;;;;;;4960427;28;20416;-81
2022/01/28 14:16:44;;;;;;;12.37;3.63;;;7.00;99.90;;;;;;4960340;28;20390;-82
2022/01/28 14:19:10;;;;;;;10.15;3.60;;;7.00;99.90;;;;;;4960716;28;20419;-82
2022/01/28 14:21:38;;;;;;;12.48;3.70;;;7.00;99.90;;;;;;4958118;28;20390;-81
2022/01/28 14:24:06;;;;;;;12.10;3.80;;;7.00;99.90;;;;;;4959333;28;20755;-82
2022/01/28 14:26:32;;;;;;;18.38;4.93;;;6.90;99.90;;;;;;4960474;28;20403;-81
2022/01/28 14:31:25;;;;;;;15.00;4.00;;;6.90;99.90;;;;;;4958194;28;20397;-83